sensor_id;sensor_type;location;lat;lon;timestamp;temperature;humidity
68098;DHT22;54886;47.036;15.466;2023-01-30T00:01:32;0.71;80.95
68098;DHT22;54886;47.036;15.466;2023-01-30T00:03:58;0.66;80.64
68098;DHT22;54886;47.036;15.466;2023-01-30T00:06:24;0.62;80.19
68098;DHT22;54886;47.036;15.466;2023-01-30T00:08:50;0.60;80.77
68098;DHT22;54886;47.036;15.466;2023-01-30T00:11:16;0.64;81.14
68098;DHT22;54886;47.036;15.466;2023-01-30T00:13:46;0.53;80.34
68098;DHT22;54886;47.036;15.466;2023-01-30T00:16:12;0.47;80.61
68098;DHT22;54886;47.036;15.466;2023-01-30T00:18:38;0.48;81.22
68098;DHT22;54886;47.036;15.466;2023-01-30T00:21:05;0.50;81.20
68098;DHT22;54886;47.036;15.466;2023-01-30T00:23:34;0.50;81.30
68098;DHT22;54886;47.036;15.466;2023-01-30T00:26:04;0.40;80.68
68098;DHT22;54886;47.036;15.466;2023-01-30T00:28:30;0.38;80.89
68098;DHT22;54886;47.036;15.466;2023-01-30T00:30:56;0.37;80.95
68098;DHT22;54886;47.036;15.466;2023-01-30T00:33:23;0.37;81.33
68098;DHT22;54886;47.036;15.466;2023-01-30T00:35:50;0.40;81.53
68098;DHT22;54886;47.036;15.466;2023-01-30T00:38:16;0.33;81.55
68098;DHT22;54886;47.036;15.466;2023-01-30T00:40:42;0.36;81.63
68098;DHT22;54886;47.036;15.466;2023-01-30T00:43:12;0.31;81.68
68098;DHT22;54886;47.036;15.466;2023-01-30T00:45:57;0.30;81.44
68098;DHT22;54886;47.036;15.466;2023-01-30T00:48:46;0.28;81.46
68098;DHT22;54886;47.036;15.466;2023-01-30T00:51:11;0.24;81.41
68098;DHT22;54886;47.036;15.466;2023-01-30T00:53:37;0.21;81.44
68098;DHT22;54886;47.036;15.466;2023-01-30T00:56:02;0.19;81.07
68098;DHT22;54886;47.036;15.466;2023-01-30T00:58:28;0.14;81.11
68098;DHT22;54886;47.036;15.466;2023-01-30T01:00:53;0.16;81.43
68098;DHT22;54886;47.036;15.466;2023-01-30T01:03:20;0.14;81.59
68098;DHT22;54886;47.036;15.466;2023-01-30T01:05:46;0.10;81.19
68098;DHT22;54886;47.036;15.466;2023-01-30T01:08:11;0.09;81.38
68098;DHT22;54886;47.036;15.466;2023-01-30T01:10:37;0.07;81.42
68098;DHT22;54886;47.036;15.466;2023-01-30T01:13:03;0.05;81.49
68098;DHT22;54886;47.036;15.466;2023-01-30T01:15:30;0.02;81.39
68098;DHT22;54886;47.036;15.466;2023-01-30T01:17:56;-0.01;81.44
68098;DHT22;54886;47.036;15.466;2023-01-30T01:20:22;0.00;81.63
68098;DHT22;54886;47.036;15.466;2023-01-30T01:22:47;-0.05;81.32
68098;DHT22;54886;47.036;15.466;2023-01-30T01:25:19;-0.04;81.68
68098;DHT22;54886;47.036;15.466;2023-01-30T01:27:45;-0.12;81.29
68098;DHT22;54886;47.036;15.466;2023-01-30T01:30:11;-0.12;80.98
68098;DHT22;54886;47.036;15.466;2023-01-30T01:32:36;-0.14;81.33
68098;DHT22;54886;47.036;15.466;2023-01-30T01:35:02;-0.26;80.91
68098;DHT22;54886;47.036;15.466;2023-01-30T01:37:28;-0.21;81.15
68098;DHT22;54886;47.036;15.466;2023-01-30T01:39:53;-0.28;81.05
68098;DHT22;54886;47.036;15.466;2023-01-30T01:42:37;-0.26;81.22
68098;DHT22;54886;47.036;15.466;2023-01-30T01:47:30;-0.26;81.45
68098;DHT22;54886;47.036;15.466;2023-01-30T01:49:56;-0.32;81.20
68098;DHT22;54886;47.036;15.466;2023-01-30T01:52:22;-0.28;81.51
68098;DHT22;54886;47.036;15.466;2023-01-30T01:55:00;-0.32;81.45
68098;DHT22;54886;47.036;15.466;2023-01-30T01:57:39;-0.38;81.29
68098;DHT22;54886;47.036;15.466;2023-01-30T02:00:11;-0.43;80.94
68098;DHT22;54886;47.036;15.466;2023-01-30T02:02:40;-0.46;81.03
68098;DHT22;54886;47.036;15.466;2023-01-30T02:05:05;-0.42;81.60
68098;DHT22;54886;47.036;15.466;2023-01-30T02:07:36;-0.50;81.00
68098;DHT22;54886;47.036;15.466;2023-01-30T02:10:02;-0.52;81.31
68098;DHT22;54886;47.036;15.466;2023-01-30T02:12:28;-0.56;80.97
68098;DHT22;54886;47.036;15.466;2023-01-30T02:14:56;-0.53;81.46
68098;DHT22;54886;47.036;15.466;2023-01-30T02:17:23;-0.53;81.26
68098;DHT22;54886;47.036;15.466;2023-01-30T02:20:15;-0.56;81.58
68098;DHT22;54886;47.036;15.466;2023-01-30T02:32:29;-0.64;81.62
68098;DHT22;54886;47.036;15.466;2023-01-30T02:45:53;-0.77;81.63
68098;DHT22;54886;47.036;15.466;2023-01-30T02:48:26;-0.83;81.56
68098;DHT22;54886;47.036;15.466;2023-01-30T02:51:00;-0.79;81.65
68098;DHT22;54886;47.036;15.466;2023-01-30T02:53:33;-0.80;81.66
68098;DHT22;54886;47.036;15.466;2023-01-30T02:56:00;-0.87;81.36
68098;DHT22;54886;47.036;15.466;2023-01-30T02:58:31;-0.90;81.53
68098;DHT22;54886;47.036;15.466;2023-01-30T03:09:40;-1.01;80.90
68098;DHT22;54886;47.036;15.466;2023-01-30T03:12:17;-1.08;80.41
68098;DHT22;54886;47.036;15.466;2023-01-30T03:14:59;-1.02;81.29
68098;DHT22;54886;47.036;15.466;2023-01-30T03:17:28;-1.07;81.45
68098;DHT22;54886;47.036;15.466;2023-01-30T03:19:55;-1.07;81.23
68098;DHT22;54886;47.036;15.466;2023-01-30T03:22:21;-1.04;81.52
68098;DHT22;54886;47.036;15.466;2023-01-30T03:24:48;-1.11;81.02
68098;DHT22;54886;47.036;15.466;2023-01-30T03:27:14;-1.11;81.24
68098;DHT22;54886;47.036;15.466;2023-01-30T03:29:40;-1.09;81.42
68098;DHT22;54886;47.036;15.466;2023-01-30T03:32:06;-1.12;81.29
68098;DHT22;54886;47.036;15.466;2023-01-30T03:34:31;-1.13;81.45
68098;DHT22;54886;47.036;15.466;2023-01-30T03:36:57;-1.11;81.62
68098;DHT22;54886;47.036;15.466;2023-01-30T03:39:23;-1.13;81.59
68098;DHT22;54886;47.036;15.466;2023-01-30T03:41:49;-1.12;81.32
68098;DHT22;54886;47.036;15.466;2023-01-30T03:44:15;-1.18;81.17
68098;DHT22;54886;47.036;15.466;2023-01-30T03:46:40;-1.19;81.44
68098;DHT22;54886;47.036;15.466;2023-01-30T03:49:07;-1.19;81.76
68098;DHT22;54886;47.036;15.466;2023-01-30T03:51:32;-1.24;81.32
68098;DHT22;54886;47.036;15.466;2023-01-30T03:53:57;-1.24;81.48
68098;DHT22;54886;47.036;15.466;2023-01-30T03:56:23;-1.27;81.44
68098;DHT22;54886;47.036;15.466;2023-01-30T03:58:51;-1.29;81.46
68098;DHT22;54886;47.036;15.466;2023-01-30T04:01:16;-1.28;81.53
68098;DHT22;54886;47.036;15.466;2023-01-30T04:03:41;-1.32;81.50
68098;DHT22;54886;47.036;15.466;2023-01-30T04:06:07;-1.36;81.43
68098;DHT22;54886;47.036;15.466;2023-01-30T04:08:32;-1.36;81.42
68098;DHT22;54886;47.036;15.466;2023-01-30T04:10:58;-1.40;81.35
68098;DHT22;54886;47.036;15.466;2023-01-30T04:13:23;-1.39;81.83
68098;DHT22;54886;47.036;15.466;2023-01-30T04:15:51;-1.43;81.37
68098;DHT22;54886;47.036;15.466;2023-01-30T04:18:17;-1.43;81.68
68098;DHT22;54886;47.036;15.466;2023-01-30T04:20:42;-1.46;81.52
68098;DHT22;54886;47.036;15.466;2023-01-30T04:23:07;-1.49;81.55
68098;DHT22;54886;47.036;15.466;2023-01-30T04:25:33;-1.45;81.62
68098;DHT22;54886;47.036;15.466;2023-01-30T04:27:58;-1.55;81.08
68098;DHT22;54886;47.036;15.466;2023-01-30T04:30:24;-1.57;81.17
68098;DHT22;54886;47.036;15.466;2023-01-30T04:32:49;-1.63;81.06
68098;DHT22;54886;47.036;15.466;2023-01-30T04:35:15;-1.60;81.53
68098;DHT22;54886;47.036;15.466;2023-01-30T04:37:40;-1.59;81.52
68098;DHT22;54886;47.036;15.466;2023-01-30T04:40:06;-1.66;81.06
68098;DHT22;54886;47.036;15.466;2023-01-30T04:42:31;-1.63;81.24
68098;DHT22;54886;47.036;15.466;2023-01-30T04:44:57;-1.63;81.25
68098;DHT22;54886;47.036;15.466;2023-01-30T04:47:22;-1.66;80.85
68098;DHT22;54886;47.036;15.466;2023-01-30T04:49:48;-1.68;80.95
68098;DHT22;54886;47.036;15.466;2023-01-30T04:52:13;-1.75;80.72
68098;DHT22;54886;47.036;15.466;2023-01-30T04:54:38;-1.70;81.32
68098;DHT22;54886;47.036;15.466;2023-01-30T04:57:04;-1.70;81.33
68098;DHT22;54886;47.036;15.466;2023-01-30T04:59:29;-1.73;80.82
68098;DHT22;54886;47.036;15.466;2023-01-30T05:01:54;-1.73;80.95
68098;DHT22;54886;47.036;15.466;2023-01-30T05:04:22;-1.73;81.27
68098;DHT22;54886;47.036;15.466;2023-01-30T05:06:48;-1.77;81.31
68098;DHT22;54886;47.036;15.466;2023-01-30T05:09:13;-1.80;80.77
68098;DHT22;54886;47.036;15.466;2023-01-30T05:11:38;-1.83;80.82
68098;DHT22;54886;47.036;15.466;2023-01-30T05:14:04;-1.81;81.23
68098;DHT22;54886;47.036;15.466;2023-01-30T05:16:29;-1.84;81.02
68098;DHT22;54886;47.036;15.466;2023-01-30T05:18:55;-1.88;81.06
68098;DHT22;54886;47.036;15.466;2023-01-30T05:21:23;-1.91;80.94
68098;DHT22;54886;47.036;15.466;2023-01-30T05:23:53;-1.91;80.83
68098;DHT22;54886;47.036;15.466;2023-01-30T05:26:19;-1.90;81.12
68098;DHT22;54886;47.036;15.466;2023-01-30T05:28:53;-1.94;80.90
68098;DHT22;54886;47.036;15.466;2023-01-30T05:31:19;-1.98;81.06
68098;DHT22;54886;47.036;15.466;2023-01-30T05:33:46;-2.02;80.88
68098;DHT22;54886;47.036;15.466;2023-01-30T05:36:14;-2.02;81.17
68098;DHT22;54886;47.036;15.466;2023-01-30T05:38:41;-1.98;81.17
68098;DHT22;54886;47.036;15.466;2023-01-30T05:41:11;-2.02;80.86
68098;DHT22;54886;47.036;15.466;2023-01-30T05:43:36;-2.02;80.77
68098;DHT22;54886;47.036;15.466;2023-01-30T05:46:03;-2.12;80.41
68098;DHT22;54886;47.036;15.466;2023-01-30T05:48:29;-2.12;81.27
68098;DHT22;54886;47.036;15.466;2023-01-30T05:50:56;-2.09;80.99
68098;DHT22;54886;47.036;15.466;2023-01-30T05:53:23;-2.08;81.27
68098;DHT22;54886;47.036;15.466;2023-01-30T05:55:59;-2.11;81.31
68098;DHT22;54886;47.036;15.466;2023-01-30T05:58:27;-2.09;81.43
68098;DHT22;54886;47.036;15.466;2023-01-30T06:00:53;-2.12;81.03
68098;DHT22;54886;47.036;15.466;2023-01-30T06:03:18;-2.16;81.29
68098;DHT22;54886;47.036;15.466;2023-01-30T06:05:44;-2.16;81.44
68098;DHT22;54886;47.036;15.466;2023-01-30T06:08:10;-2.15;81.57
68098;DHT22;54886;47.036;15.466;2023-01-30T06:10:35;-2.18;81.29
68098;DHT22;54886;47.036;15.466;2023-01-30T06:13:01;-2.19;81.63
68098;DHT22;54886;47.036;15.466;2023-01-30T06:15:26;-2.13;81.67
68098;DHT22;54886;47.036;15.466;2023-01-30T06:17:52;-2.13;81.67
68098;DHT22;54886;47.036;15.466;2023-01-30T06:20:17;-2.13;81.82
68098;DHT22;54886;47.036;15.466;2023-01-30T06:22:43;-2.15;82.01
68098;DHT22;54886;47.036;15.466;2023-01-30T06:25:08;-2.16;82.20
68098;DHT22;54886;47.036;15.466;2023-01-30T06:27:34;-2.12;82.13
68098;DHT22;54886;47.036;15.466;2023-01-30T06:30:00;-2.12;82.22
68098;DHT22;54886;47.036;15.466;2023-01-30T06:32:28;-2.18;82.58
68098;DHT22;54886;47.036;15.466;2023-01-30T06:34:56;-2.15;82.48
68098;DHT22;54886;47.036;15.466;2023-01-30T06:37:22;-2.13;82.30
68098;DHT22;54886;47.036;15.466;2023-01-30T06:39:47;-2.15;82.54
68098;DHT22;54886;47.036;15.466;2023-01-30T06:42:16;-2.08;82.22
68098;DHT22;54886;47.036;15.466;2023-01-30T06:44:41;-2.09;82.22
68098;DHT22;54886;47.036;15.466;2023-01-30T06:47:06;-2.08;82.56
68098;DHT22;54886;47.036;15.466;2023-01-30T06:49:32;-2.05;82.63
68098;DHT22;54886;47.036;15.466;2023-01-30T06:51:57;-2.05;82.66
68098;DHT22;54886;47.036;15.466;2023-01-30T06:54:22;-2.05;82.38
68098;DHT22;54886;47.036;15.466;2023-01-30T06:56:48;-2.02;82.38
68098;DHT22;54886;47.036;15.466;2023-01-30T06:59:16;-2.02;83.02
68098;DHT22;54886;47.036;15.466;2023-01-30T07:01:41;-2.04;82.85
68098;DHT22;54886;47.036;15.466;2023-01-30T07:04:06;-2.02;82.97
68098;DHT22;54886;47.036;15.466;2023-01-30T07:06:32;-2.01;83.38
68098;DHT22;54886;47.036;15.466;2023-01-30T07:09:00;-2.01;83.05
68098;DHT22;54886;47.036;15.466;2023-01-30T07:11:25;-1.98;83.48
68098;DHT22;54886;47.036;15.466;2023-01-30T07:13:51;-1.97;83.03
68098;DHT22;54886;47.036;15.466;2023-01-30T07:16:16;-1.97;82.74
68098;DHT22;54886;47.036;15.466;2023-01-30T07:18:42;-1.95;83.28
68098;DHT22;54886;47.036;15.466;2023-01-30T07:21:08;-1.95;82.82
68098;DHT22;54886;47.036;15.466;2023-01-30T07:23:33;-1.91;83.01
68098;DHT22;54886;47.036;15.466;2023-01-30T07:26:03;-1.97;84.15
68098;DHT22;54886;47.036;15.466;2023-01-30T07:28:28;-1.93;83.67
68098;DHT22;54886;47.036;15.466;2023-01-30T07:30:54;-1.88;84.06
68098;DHT22;54886;47.036;15.466;2023-01-30T07:33:22;-1.88;83.72
68098;DHT22;54886;47.036;15.466;2023-01-30T07:35:48;-1.84;84.09
68098;DHT22;54886;47.036;15.466;2023-01-30T07:38:13;-1.80;83.86
68098;DHT22;54886;47.036;15.466;2023-01-30T07:40:39;-1.80;84.27
68098;DHT22;54886;47.036;15.466;2023-01-30T07:43:09;-1.77;84.10
68098;DHT22;54886;47.036;15.466;2023-01-30T07:45:43;-1.75;84.43
68098;DHT22;54886;47.036;15.466;2023-01-30T07:48:10;-1.71;84.37
68098;DHT22;54886;47.036;15.466;2023-01-30T07:50:36;-1.71;84.63
68098;DHT22;54886;47.036;15.466;2023-01-30T07:53:03;-1.67;84.83
68098;DHT22;54886;47.036;15.466;2023-01-30T07:55:29;-1.66;84.86
68098;DHT22;54886;47.036;15.466;2023-01-30T07:57:54;-1.63;84.72
68098;DHT22;54886;47.036;15.466;2023-01-30T08:00:20;-1.59;84.84
68098;DHT22;54886;47.036;15.466;2023-01-30T08:02:45;-1.55;85.06
68098;DHT22;54886;47.036;15.466;2023-01-30T08:05:11;-1.59;85.00
68098;DHT22;54886;47.036;15.466;2023-01-30T08:07:36;-1.55;85.26
68098;DHT22;54886;47.036;15.466;2023-01-30T08:10:01;-1.53;84.92
68098;DHT22;54886;47.036;15.466;2023-01-30T08:12:28;-1.47;85.35
68098;DHT22;54886;47.036;15.466;2023-01-30T08:14:53;-1.47;84.43
68098;DHT22;54886;47.036;15.466;2023-01-30T08:17:19;-1.45;84.97
68098;DHT22;54886;47.036;15.466;2023-01-30T08:19:44;-1.43;85.00
68098;DHT22;54886;47.036;15.466;2023-01-30T08:22:10;-1.42;85.21
68098;DHT22;54886;47.036;15.466;2023-01-30T08:24:35;-1.39;85.29
68098;DHT22;54886;47.036;15.466;2023-01-30T08:27:00;-1.38;85.28
68098;DHT22;54886;47.036;15.466;2023-01-30T08:29:26;-1.35;85.27
68098;DHT22;54886;47.036;15.466;2023-01-30T08:31:56;-1.32;85.40
68098;DHT22;54886;47.036;15.466;2023-01-30T08:34:21;-1.32;85.54
68098;DHT22;54886;47.036;15.466;2023-01-30T08:36:47;-1.32;85.41
68098;DHT22;54886;47.036;15.466;2023-01-30T08:39:13;-1.29;85.32
68098;DHT22;54886;47.036;15.466;2023-01-30T08:41:39;-1.28;85.49
68098;DHT22;54886;47.036;15.466;2023-01-30T08:44:10;-1.25;84.80
68098;DHT22;54886;47.036;15.466;2023-01-30T08:46:37;-1.25;84.98
68098;DHT22;54886;47.036;15.466;2023-01-30T08:49:03;-1.25;85.07
68098;DHT22;54886;47.036;15.466;2023-01-30T08:51:28;-1.24;85.09
68098;DHT22;54886;47.036;15.466;2023-01-30T08:54:04;-1.16;84.71
68098;DHT22;54886;47.036;15.466;2023-01-30T08:56:38;-1.15;84.51
68098;DHT22;54886;47.036;15.466;2023-01-30T08:59:04;-1.05;84.23
68098;DHT22;54886;47.036;15.466;2023-01-30T09:01:30;-1.02;83.95
68098;DHT22;54886;47.036;15.466;2023-01-30T09:03:55;-1.01;84.10
68098;DHT22;54886;47.036;15.466;2023-01-30T09:06:21;-0.98;84.04
68098;DHT22;54886;47.036;15.466;2023-01-30T09:08:46;-0.91;83.88
68098;DHT22;54886;47.036;15.466;2023-01-30T09:11:12;-0.85;83.77
68098;DHT22;54886;47.036;15.466;2023-01-30T09:13:37;-0.77;83.59
68098;DHT22;54886;47.036;15.466;2023-01-30T09:16:08;-0.74;83.68
68098;DHT22;54886;47.036;15.466;2023-01-30T09:18:40;-0.70;84.01
68098;DHT22;54886;47.036;15.466;2023-01-30T09:21:05;-0.69;83.27
68098;DHT22;54886;47.036;15.466;2023-01-30T09:23:32;-0.59;83.33
68098;DHT22;54886;47.036;15.466;2023-01-30T09:25:57;-0.56;83.41
68098;DHT22;54886;47.036;15.466;2023-01-30T09:28:24;-0.48;83.59
68098;DHT22;54886;47.036;15.466;2023-01-30T09:30:50;-0.50;82.88
68098;DHT22;54886;47.036;15.466;2023-01-30T09:33:15;-0.45;83.41
68098;DHT22;54886;47.036;15.466;2023-01-30T09:35:48;-0.45;83.39
68098;DHT22;54886;47.036;15.466;2023-01-30T09:38:17;-0.39;83.63
68098;DHT22;54886;47.036;15.466;2023-01-30T09:43:49;-0.28;83.32
68098;DHT22;54886;47.036;15.466;2023-01-30T09:49:34;-0.19;82.96
68098;DHT22;54886;47.036;15.466;2023-01-30T09:54:59;-0.04;83.04
68098;DHT22;54886;47.036;15.466;2023-01-30T09:57:26;-0.01;82.68
68098;DHT22;54886;47.036;15.466;2023-01-30T09:59:59;0.03;82.74
68098;DHT22;54886;47.036;15.466;2023-01-30T10:05:51;0.11;83.25
68098;DHT22;54886;47.036;15.466;2023-01-30T10:17:03;0.30;83.40
68098;DHT22;54886;47.036;15.466;2023-01-30T10:19:43;0.31;83.01
68098;DHT22;54886;47.036;15.466;2023-01-30T10:28:15;0.36;81.71
68098;DHT22;54886;47.036;15.466;2023-01-30T10:30:44;0.36;81.73
68098;DHT22;54886;47.036;15.466;2023-01-30T10:33:29;0.38;81.63
68098;DHT22;54886;47.036;15.466;2023-01-30T10:36:08;0.40;81.76
68098;DHT22;54886;47.036;15.466;2023-01-30T10:38:40;0.40;81.71
68098;DHT22;54886;47.036;15.466;2023-01-30T10:43:59;0.45;81.77
68098;DHT22;54886;47.036;15.466;2023-01-30T10:46:42;0.51;81.56
68098;DHT22;54886;47.036;15.466;2023-01-30T10:49:34;0.54;80.98
68098;DHT22;54886;47.036;15.466;2023-01-30T10:57:54;0.69;79.96
68098;DHT22;54886;47.036;15.466;2023-01-30T11:00:36;0.78;78.47
68098;DHT22;54886;47.036;15.466;2023-01-30T11:03:07;0.79;78.33
68098;DHT22;54886;47.036;15.466;2023-01-30T11:05:49;0.83;77.54
68098;DHT22;54886;47.036;15.466;2023-01-30T11:08:24;0.85;78.30
68098;DHT22;54886;47.036;15.466;2023-01-30T11:10:51;0.91;78.44
68098;DHT22;54886;47.036;15.466;2023-01-30T11:13:21;0.95;78.09
68098;DHT22;54886;47.036;15.466;2023-01-30T11:15:52;0.99;78.52
68098;DHT22;54886;47.036;15.466;2023-01-30T11:18:19;1.04;78.39
68098;DHT22;54886;47.036;15.466;2023-01-30T11:21:01;1.07;77.88
68098;DHT22;54886;47.036;15.466;2023-01-30T11:23:35;1.10;77.22
68098;DHT22;54886;47.036;15.466;2023-01-30T11:26:04;1.12;77.68
68098;DHT22;54886;47.036;15.466;2023-01-30T11:28:39;1.12;77.42
68098;DHT22;54886;47.036;15.466;2023-01-30T11:31:18;1.19;76.96
68098;DHT22;54886;47.036;15.466;2023-01-30T11:33:44;1.24;77.37
68098;DHT22;54886;47.036;15.466;2023-01-30T11:36:27;1.27;77.04
68098;DHT22;54886;47.036;15.466;2023-01-30T11:38:57;1.34;76.51
68098;DHT22;54886;47.036;15.466;2023-01-30T11:41:22;1.38;76.58
68098;DHT22;54886;47.036;15.466;2023-01-30T11:43:48;1.41;76.33
68098;DHT22;54886;47.036;15.466;2023-01-30T11:46:19;1.47;76.19
68098;DHT22;54886;47.036;15.466;2023-01-30T11:49:00;1.48;76.61
68098;DHT22;54886;47.036;15.466;2023-01-30T11:51:28;1.51;76.75
68098;DHT22;54886;47.036;15.466;2023-01-30T11:56:45;1.56;75.99
68098;DHT22;54886;47.036;15.466;2023-01-30T11:59:27;1.64;76.27
68098;DHT22;54886;47.036;15.466;2023-01-30T12:02:12;1.64;76.76
68098;DHT22;54886;47.036;15.466;2023-01-30T12:04:43;1.65;76.67
68098;DHT22;54886;47.036;15.466;2023-01-30T12:07:24;1.75;76.24
68098;DHT22;54886;47.036;15.466;2023-01-30T12:09:50;1.82;75.50
68098;DHT22;54886;47.036;15.466;2023-01-30T12:12:33;1.85;76.19
68098;DHT22;54886;47.036;15.466;2023-01-30T12:15:20;1.89;75.90
68098;DHT22;54886;47.036;15.466;2023-01-30T12:23:39;1.98;75.93
68098;DHT22;54886;47.036;15.466;2023-01-30T12:26:13;1.99;76.24
68098;DHT22;54886;47.036;15.466;2023-01-30T12:28:45;2.03;76.03
68098;DHT22;54886;47.036;15.466;2023-01-30T12:31:18;2.03;76.36
68098;DHT22;54886;47.036;15.466;2023-01-30T12:33:44;2.06;75.90
68098;DHT22;54886;47.036;15.466;2023-01-30T12:36:44;2.09;76.29
68098;DHT22;54886;47.036;15.466;2023-01-30T12:45:18;2.23;76.29
68098;DHT22;54886;47.036;15.466;2023-01-30T12:56:28;2.45;75.99
68098;DHT22;54886;47.036;15.466;2023-01-30T12:59:06;2.42;76.26
68098;DHT22;54886;47.036;15.466;2023-01-30T13:07:30;2.47;76.63
68098;DHT22;54886;47.036;15.466;2023-01-30T13:10:20;2.51;76.33
68098;DHT22;54886;47.036;15.466;2023-01-30T13:19:49;2.66;75.99
68098;DHT22;54886;47.036;15.466;2023-01-30T13:27:54;2.72;76.02
68098;DHT22;54886;47.036;15.466;2023-01-30T13:30:21;2.74;76.00
68098;DHT22;54886;47.036;15.466;2023-01-30T13:32:53;2.76;76.09
68098;DHT22;54886;47.036;15.466;2023-01-30T13:35:32;2.79;76.18
68098;DHT22;54886;47.036;15.466;2023-01-30T13:37:59;2.82;75.91
68098;DHT22;54886;47.036;15.466;2023-01-30T13:40:31;2.86;76.08
68098;DHT22;54886;47.036;15.466;2023-01-30T13:45:36;2.99;75.29
68098;DHT22;54886;47.036;15.466;2023-01-30T13:48:23;2.99;74.81
68098;DHT22;54886;47.036;15.466;2023-01-30T13:50:59;3.00;74.16
68098;DHT22;54886;47.036;15.466;2023-01-30T13:59:09;2.99;72.86
68098;DHT22;54886;47.036;15.466;2023-01-30T14:09:42;3.03;72.36
68098;DHT22;54886;47.036;15.466;2023-01-30T14:12:20;3.04;72.09
68098;DHT22;54886;47.036;15.466;2023-01-30T14:20:27;3.10;72.04
68098;DHT22;54886;47.036;15.466;2023-01-30T14:22:55;3.13;72.51
68098;DHT22;54886;47.036;15.466;2023-01-30T14:38:39;3.16;73.30
68098;DHT22;54886;47.036;15.466;2023-01-30T14:49:04;3.21;74.36
68098;DHT22;54886;47.036;15.466;2023-01-30T14:51:44;3.23;74.46
68098;DHT22;54886;47.036;15.466;2023-01-30T14:59:35;3.23;75.04
68098;DHT22;54886;47.036;15.466;2023-01-30T15:04:50;3.31;74.71
68098;DHT22;54886;47.036;15.466;2023-01-30T15:18:35;3.32;73.52
68098;DHT22;54886;47.036;15.466;2023-01-30T15:30:03;3.30;74.46
68098;DHT22;54886;47.036;15.466;2023-01-30T15:32:31;3.28;74.49
68098;DHT22;54886;47.036;15.466;2023-01-30T15:34:58;3.28;74.88
68098;DHT22;54886;47.036;15.466;2023-01-30T15:37:34;3.27;74.72
68098;DHT22;54886;47.036;15.466;2023-01-30T15:40:29;3.28;74.09
68098;DHT22;54886;47.036;15.466;2023-01-30T15:50:46;3.17;76.13
68098;DHT22;54886;47.036;15.466;2023-01-30T15:53:13;3.17;76.30
68098;DHT22;54886;47.036;15.466;2023-01-30T15:55:40;3.17;76.55
68098;DHT22;54886;47.036;15.466;2023-01-30T15:58:13;3.17;76.45
68098;DHT22;54886;47.036;15.466;2023-01-30T16:00:45;3.14;76.05
68098;DHT22;54886;47.036;15.466;2023-01-30T16:03:15;3.16;76.01
68098;DHT22;54886;47.036;15.466;2023-01-30T16:05:49;3.14;75.75
68098;DHT22;54886;47.036;15.466;2023-01-30T16:08:31;3.16;76.49
68098;DHT22;54886;47.036;15.466;2023-01-30T16:10:57;3.11;76.93
68098;DHT22;54886;47.036;15.466;2023-01-30T16:13:26;3.11;76.21
68098;DHT22;54886;47.036;15.466;2023-01-30T16:16:05;3.11;76.87
68098;DHT22;54886;47.036;15.466;2023-01-30T16:18:36;3.09;76.99
68098;DHT22;54886;47.036;15.466;2023-01-30T16:21:09;3.06;77.07
68098;DHT22;54886;47.036;15.466;2023-01-30T16:23:50;3.07;77.15
68098;DHT22;54886;47.036;15.466;2023-01-30T16:26:17;3.03;77.44
68098;DHT22;54886;47.036;15.466;2023-01-30T16:28:47;3.04;77.51
68098;DHT22;54886;47.036;15.466;2023-01-30T16:31:13;3.06;77.29
68098;DHT22;54886;47.036;15.466;2023-01-30T16:33:39;3.07;77.57
68098;DHT22;54886;47.036;15.466;2023-01-30T16:38:52;3.00;78.05
68098;DHT22;54886;47.036;15.466;2023-01-30T16:44:20;2.99;78.28
68098;DHT22;54886;47.036;15.466;2023-01-30T16:49:22;2.97;78.45
68098;DHT22;54886;47.036;15.466;2023-01-30T16:51:59;2.96;78.49
68098;DHT22;54886;47.036;15.466;2023-01-30T16:54:29;2.93;78.62
68098;DHT22;54886;47.036;15.466;2023-01-30T16:56:56;2.92;78.66
68098;DHT22;54886;47.036;15.466;2023-01-30T16:59:31;2.92;78.68
68098;DHT22;54886;47.036;15.466;2023-01-30T17:01:57;2.88;78.76
68098;DHT22;54886;47.036;15.466;2023-01-30T17:04:28;2.83;78.75
68098;DHT22;54886;47.036;15.466;2023-01-30T17:07:03;2.85;78.94
68098;DHT22;54886;47.036;15.466;2023-01-30T17:09:45;2.82;79.01
68098;DHT22;54886;47.036;15.466;2023-01-30T17:12:32;2.78;79.08
68098;DHT22;54886;47.036;15.466;2023-01-30T17:17:40;2.72;79.16
68098;DHT22;54886;47.036;15.466;2023-01-30T17:20:07;2.68;79.19
68098;DHT22;54886;47.036;15.466;2023-01-30T17:22:36;2.65;79.31
68098;DHT22;54886;47.036;15.466;2023-01-30T17:25:05;2.64;79.06
68098;DHT22;54886;47.036;15.466;2023-01-30T17:27:34;2.61;79.25
68098;DHT22;54886;47.036;15.466;2023-01-30T17:30:00;2.56;79.53
68098;DHT22;54886;47.036;15.466;2023-01-30T17:32:25;2.58;79.39
68098;DHT22;54886;47.036;15.466;2023-01-30T17:34:51;2.52;79.26
68098;DHT22;54886;47.036;15.466;2023-01-30T17:37:18;2.48;79.29
68098;DHT22;54886;47.036;15.466;2023-01-30T17:39:44;2.44;79.46
68098;DHT22;54886;47.036;15.466;2023-01-30T17:42:12;2.30;79.89
68098;DHT22;54886;47.036;15.466;2023-01-30T17:44:38;2.34;79.96
68098;DHT22;54886;47.036;15.466;2023-01-30T17:47:03;2.34;80.18
68098;DHT22;54886;47.036;15.466;2023-01-30T17:49:29;2.36;80.00
68098;DHT22;54886;47.036;15.466;2023-01-30T17:51:54;2.31;80.04
68098;DHT22;54886;47.036;15.466;2023-01-30T17:54:23;2.30;80.28
68098;DHT22;54886;47.036;15.466;2023-01-30T17:56:59;2.26;80.37
68098;DHT22;54886;47.036;15.466;2023-01-30T17:59:25;2.13;80.63
68098;DHT22;54886;47.036;15.466;2023-01-30T18:01:51;2.16;80.58
68098;DHT22;54886;47.036;15.466;2023-01-30T18:04:19;2.11;80.88
68098;DHT22;54886;47.036;15.466;2023-01-30T18:06:47;2.14;81.28
68098;DHT22;54886;47.036;15.466;2023-01-30T18:09:18;2.16;81.42
68098;DHT22;54886;47.036;15.466;2023-01-30T18:11:46;2.10;81.31
68098;DHT22;54886;47.036;15.466;2023-01-30T18:14:12;2.06;81.54
68098;DHT22;54886;47.036;15.466;2023-01-30T18:16:38;2.14;81.50
68098;DHT22;54886;47.036;15.466;2023-01-30T18:19:05;2.13;81.64
68098;DHT22;54886;47.036;15.466;2023-01-30T18:21:32;2.10;81.27
68098;DHT22;54886;47.036;15.466;2023-01-30T18:23:59;2.07;81.12
68098;DHT22;54886;47.036;15.466;2023-01-30T18:26:25;2.05;81.31
68098;DHT22;54886;47.036;15.466;2023-01-30T18:28:53;1.96;81.54
68098;DHT22;54886;47.036;15.466;2023-01-30T18:31:19;1.96;81.36
68098;DHT22;54886;47.036;15.466;2023-01-30T18:33:49;1.96;81.38
68098;DHT22;54886;47.036;15.466;2023-01-30T18:36:17;1.89;81.70
68098;DHT22;54886;47.036;15.466;2023-01-30T18:38:42;1.93;81.93
68098;DHT22;54886;47.036;15.466;2023-01-30T18:43:38;1.86;81.51
68098;DHT22;54886;47.036;15.466;2023-01-30T18:46:06;1.98;80.85
68098;DHT22;54886;47.036;15.466;2023-01-30T18:48:33;2.14;79.44
68098;DHT22;54886;47.036;15.466;2023-01-30T18:53:45;2.51;77.39
68098;DHT22;54886;47.036;15.466;2023-01-30T18:56:26;2.66;76.53
68098;DHT22;54886;47.036;15.466;2023-01-30T18:58:54;2.79;76.25